Time;durP1;ratioP1;P1;durP2;ratioP2;P2;SDS_P1;SDS_P2;PMS_P1;PMS_P2;Temp;Humidity;BMP_temperature;BMP_pressure;BME280_temperature;BME280_humidity;BME280_pressure;Samples;Min_cycle;Max_cycle;Signal;HPM_P1;HPM_P2
2022/07/05 00:02:11;;;;;;;7.03;5.30;;;27.10;59.10;;;;;;6162808;28;80609;-82
2022/07/05 00:05:11;;;;;;;10.02;5.28;;;27.10;59.20;;;;;;6161604;28;80421;-81
2022/07/05 00:08:12;;;;;;;10.77;5.93;;;27.20;59.10;;;;;;6160486;28;83425;-80
2022/07/05 00:11:12;;;;;;;9.13;5.22;;;27.10;59.00;;;;;;6162722;28;80475;-82
2022/07/05 00:14:13;;;;;;;8.07;5.07;;;27.10;59.10;;;;;;6152915;28;80593;-80
2022/07/05 00:17:13;;;;;;;14.98;5.47;;;27.10;59.40;;;;;;6159926;28;80297;-81
2022/07/05 00:20:13;;;;;;;10.88;6.22;;;27.10;59.50;;;;;;6161916;28;80315;-83
2022/07/05 00:23:14;;;;;;;15.35;6.28;;;27.00;60.00;;;;;;6159930;28;80525;-80
2022/07/05 00:26:14;;;;;;;9.93;5.97;;;26.60;61.20;;;;;;6158700;28;81738;-81
2022/07/05 00:29:15;;;;;;;13.57;6.70;;;26.30;62.30;;;;;;6148618;28;80256;-78
2022/07/05 00:32:15;;;;;;;10.35;5.70;;;26.20;62.60;;;;;;6162117;28;80456;-81
2022/07/05 00:35:16;;;;;;;12.10;6.43;;;26.30;62.40;;;;;;6160835;28;82081;-80
2022/07/05 00:38:16;;;;;;;11.40;6.35;;;26.40;61.80;;;;;;6162491;28;80941;-80
2022/07/05 00:41:17;;;;;;;13.00;5.60;;;26.60;61.50;;;;;;6160739;28;83659;-83
2022/07/05 00:44:17;;;;;;;13.32;5.82;;;26.60;61.20;;;;;;6162092;28;87488;-79
2022/07/05 00:47:18;;;;;;;9.93;5.68;;;26.70;61.40;;;;;;6158387;28;80705;-77
2022/07/05 00:50:18;;;;;;;10.27;5.40;;;26.70;61.10;;;;;;6162878;28;79995;-76
2022/07/05 00:53:19;;;;;;;9.18;5.63;;;26.80;61.00;;;;;;6156196;28;80929;-79
2022/07/05 00:56:19;;;;;;;6.70;4.18;;;26.90;60.30;;;;;;6148762;28;81572;-76
2022/07/05 00:59:20;;;;;;;8.18;4.30;;;26.90;58.70;;;;;;6159709;28;83621;-76
2022/07/05 01:02:22;;;;;;;6.60;3.72;;;26.90;59.10;;;;;;6154492;28;80138;-75
2022/07/05 01:05:22;;;;;;;7.30;4.10;;;26.90;57.20;;;;;;6158483;28;80435;-76
2022/07/05 01:08:23;;;;;;;4.95;3.17;;;26.90;56.70;;;;;;6160871;28;80458;-78
2022/07/05 01:11:24;;;;;;;6.30;3.33;;;27.00;56.20;;;;;;6148296;28;82545;-76
2022/07/05 01:14:24;;;;;;;3.97;3.10;;;26.90;55.40;;;;;;6150332;28;81899;-76
2022/07/05 01:17:25;;;;;;;7.47;2.60;;;26.90;55.60;;;;;;6159274;28;81442;-76
2022/07/05 01:20:26;;;;;;;4.43;2.80;;;26.90;55.60;;;;;;6161231;28;80462;-77
2022/07/05 01:23:26;;;;;;;4.43;3.40;;;26.90;55.10;;;;;;6159801;28;83649;-76
2022/07/05 01:26:27;;;;;;;3.80;2.78;;;26.90;54.80;;;;;;6159599;28;80398;-76
2022/07/05 01:29:27;;;;;;;4.68;3.13;;;26.90;55.00;;;;;;6159134;28;83251;-76
2022/07/05 01:32:27;;;;;;;5.85;2.85;;;26.90;54.80;;;;;;6160909;28;80500;-77
2022/07/05 01:35:28;;;;;;;3.00;2.70;;;27.00;55.00;;;;;;6160842;28;80852;-77
2022/07/05 01:38:28;;;;;;;5.25;3.05;;;27.00;55.00;;;;;;6161039;28;80223;-77
2022/07/05 01:41:29;;;;;;;3.10;2.72;;;26.90;55.40;;;;;;6161287;28;82521;-77
2022/07/05 01:44:30;;;;;;;3.13;2.70;;;26.90;55.60;;;;;;6163724;28;81668;-75
2022/07/05 01:47:31;;;;;;;3.72;3.10;;;26.90;55.60;;;;;;6141583;28;81536;-76
2022/07/05 01:50:31;;;;;;;3.15;2.67;;;26.90;55.50;;;;;;6158861;28;82780;-75
2022/07/05 01:53:32;;;;;;;2.85;2.47;;;27.00;55.60;;;;;;6158785;28;83587;-74
2022/07/05 01:56:33;;;;;;;6.07;2.75;;;27.00;55.70;;;;;;6158317;28;81761;-75
2022/07/05 01:59:36;;;;;;;4.28;2.80;;;27.00;55.70;;;;;;6157507;28;81443;-71
2022/07/05 02:02:37;;;;;;;6.60;3.10;;;27.00;55.80;;;;;;6150018;28;80560;-71
2022/07/05 02:05:37;;;;;;;4.60;3.05;;;27.00;55.70;;;;;;6158641;28;80780;-69
2022/07/05 02:08:38;;;;;;;4.47;2.90;;;27.00;55.60;;;;;;6157139;28;87341;-70
2022/07/05 02:11:43;;;;;;;4.10;2.93;;;27.00;55.60;;;;;;6157382;28;82220;-69
2022/07/05 02:14:44;;;;;;;3.15;2.75;;;27.00;55.70;;;;;;6158800;28;80391;-71
2022/07/05 02:17:49;;;;;;;;;;;27.00;55.70;;;;;;6156305;28;83745;-70
2022/07/05 02:20:50;;;;;;;5.63;2.70;;;27.00;55.80;;;;;;6161641;28;83149;-70
2022/07/05 02:23:51;;;;;;;5.57;3.15;;;27.00;55.80;;;;;;6154044;28;80517;-71
2022/07/05 02:26:52;;;;;;;3.83;3.40;;;27.10;55.80;;;;;;6158672;28;80866;-71
2022/07/05 02:29:53;;;;;;;3.25;2.72;;;27.10;55.90;;;;;;6156871;28;83285;-71
2022/07/05 02:33:00;;;;;;;4.25;2.95;;;27.10;55.90;;;;;;6157280;28;82860;-71
2022/07/05 02:36:02;;;;;;;16.08;3.03;;;27.10;56.00;;;;;;6156490;28;83709;-71
2022/07/05 02:39:02;;;;;;;4.43;2.95;;;27.10;56.00;;;;;;6156570;28;82880;-70
2022/07/05 02:42:03;;;;;;;3.25;2.80;;;27.10;56.00;;;;;;6140419;28;82968;-69
2022/07/05 02:45:04;;;;;;;3.67;2.80;;;27.10;56.20;;;;;;6156881;28;81481;-71
2022/07/05 02:48:05;;;;;;;3.53;3.22;;;27.00;56.40;;;;;;6156748;28;83540;-69
2022/07/05 02:51:06;;;;;;;4.18;3.47;;;27.00;56.50;;;;;;6156598;28;83362;-69
2022/07/05 02:54:08;;;;;;;11.23;3.72;;;27.00;56.50;;;;;;6152636;28;83236;-70
2022/07/05 02:57:10;;;;;;;4.18;3.10;;;27.00;56.70;;;;;;6153138;28;83430;-70
2022/07/05 03:00:11;;;;;;;6.55;3.15;;;26.70;57.50;;;;;;6160302;28;83038;-72
2022/07/05 03:03:15;;;;;;;4.22;3.35;;;26.60;58.00;;;;;;6137559;28;86861;-70
2022/07/05 03:06:16;;;;;;;4.25;3.00;;;26.10;58.90;;;;;;6161487;28;82846;-71
2022/07/05 03:09:17;;;;;;;4.05;3.30;;;25.80;60.10;;;;;;6161137;28;83950;-69
2022/07/05 03:12:18;;;;;;;6.55;3.50;;;25.60;60.90;;;;;;6161174;28;81068;-70
2022/07/05 03:15:20;;;;;;;13.02;3.65;;;25.50;61.10;;;;;;6161132;28;83331;-69
2022/07/05 03:18:21;;;;;;;6.85;3.60;;;25.30;61.40;;;;;;6160079;28;81418;-70
2022/07/05 03:21:22;;;;;;;9.23;4.07;;;25.10;62.60;;;;;;6160827;28;83648;-70
2022/07/05 03:24:22;;;;;;;6.65;3.72;;;25.50;62.10;;;;;;6160755;28;82738;-70
2022/07/05 03:27:23;;;;;;;9.15;3.90;;;25.80;61.00;;;;;;6162524;28;80419;-70
2022/07/05 03:30:27;;;;;;;5.55;3.40;;;26.10;61.00;;;;;;6160443;28;82295;-70
2022/07/05 03:33:28;;;;;;;7.88;3.50;;;26.00;62.50;;;;;;6160677;28;82060;-70
2022/07/05 03:36:29;;;;;;;5.97;3.80;;;26.00;62.40;;;;;;6160979;28;82243;-71
2022/07/05 03:39:30;;;;;;;5.25;3.50;;;26.20;61.80;;;;;;6160704;28;81912;-73
2022/07/05 03:42:32;;;;;;;5.20;3.60;;;26.40;62.00;;;;;;6161010;28;80314;-71
2022/07/05 03:45:33;;;;;;;6.72;3.72;;;26.40;62.10;;;;;;6160171;28;83166;-69
2022/07/05 03:48:34;;;;;;;8.70;3.58;;;26.20;62.80;;;;;;6160959;28;80268;-65
2022/07/05 03:51:34;;;;;;;6.80;3.83;;;26.20;62.80;;;;;;6153940;28;82019;-67
2022/07/05 03:54:36;;;;;;;17.63;4.32;;;26.10;63.00;;;;;;6143633;28;81340;-63
2022/07/05 03:57:39;;;;;;;18.95;5.38;;;25.80;63.90;;;;;;6153889;28;81606;-63
2022/07/05 04:00:40;;;;;;;6.72;3.65;;;25.90;64.00;;;;;;6158604;28;82592;-63
2022/07/05 04:03:44;;;;;;;10.13;4.50;;;25.90;63.70;;;;;;6165324;28;81544;-63
2022/07/05 04:06:46;;;;;;;7.40;3.78;;;26.10;63.30;;;;;;6159723;28;83419;-73
2022/07/05 04:09:47;;;;;;;11.05;4.65;;;26.20;62.80;;;;;;6158682;28;83184;-63
2022/07/05 04:12:48;;;;;;;10.82;4.57;;;26.40;62.70;;;;;;6159075;28;82744;-62
2022/07/05 04:15:49;;;;;;;12.25;4.47;;;26.40;63.00;;;;;;6159968;28;80471;-62
2022/07/05 04:18:50;;;;;;;14.50;4.00;;;26.50;63.40;;;;;;6159142;28;81468;-62
2022/07/05 04:21:51;;;;;;;7.05;3.88;;;26.60;63.40;;;;;;6155175;28;83297;-63
2022/07/05 04:28:10;;;;;;;8.95;4.70;;;26.60;63.90;;;;;;6157715;28;83842;-68
2022/07/05 04:31:12;;;;;;;13.00;4.38;;;26.70;62.80;;;;;;6130860;28;83483;-68
2022/07/05 04:34:17;;;;;;;7.13;4.07;;;26.80;63.20;;;;;;6151854;28;81831;-62
2022/07/05 04:37:19;;;;;;;10.68;4.10;;;26.80;62.00;;;;;;6147036;28;83062;-60
2022/07/05 04:40:20;;;;;;;6.90;3.22;;;26.80;61.80;;;;;;6153055;28;83267;-65
2022/07/05 04:43:21;;;;;;;6.05;3.42;;;26.80;62.00;;;;;;6166309;28;82225;-61
2022/07/05 04:46:22;;;;;;;4.57;3.00;;;26.80;62.10;;;;;;6147185;28;80469;-71
2022/07/05 04:49:24;;;;;;;4.45;3.22;;;26.80;62.00;;;;;;6169644;28;82459;-62
2022/07/05 04:52:25;;;;;;;6.10;3.20;;;26.90;61.70;;;;;;6158727;28;82309;-61
2022/07/05 04:55:25;;;;;;;6.53;3.35;;;26.90;61.70;;;;;;6153203;28;80583;-70
2022/07/05 04:58:26;;;;;;;7.07;3.03;;;26.90;62.00;;;;;;6154032;28;80560;-61
2022/07/05 05:01:26;;;;;;;6.72;3.88;;;27.00;62.00;;;;;;6155096;28;80461;-61
2022/07/05 05:04:27;;;;;;;6.35;3.55;;;27.00;62.40;;;;;;6152902;28;81427;-61
2022/07/05 05:07:27;;;;;;;8.05;3.22;;;26.90;62.50;;;;;;6157471;28;80065;-61
2022/07/05 05:10:28;;;;;;;7.65;3.65;;;27.00;62.50;;;;;;6159427;28;80823;-61
2022/07/05 05:13:28;;;;;;;6.05;3.38;;;27.00;62.30;;;;;;6154908;28;80429;-61
2022/07/05 05:16:29;;;;;;;5.47;2.90;;;27.00;62.50;;;;;;6159147;28;80374;-61
2022/07/05 05:19:29;;;;;;;7.90;3.53;;;27.00;62.60;;;;;;6159153;28;80456;-61
2022/07/05 05:22:30;;;;;;;8.85;3.30;;;26.90;62.60;;;;;;6157241;28;81441;-60
2022/07/05 05:25:30;;;;;;;4.97;3.90;;;26.90;62.80;;;;;;6157427;28;80426;-61
2022/07/05 05:28:31;;;;;;;12.50;4.47;;;26.90;65.80;;;;;;6157772;28;80384;-60
2022/07/05 05:31:31;;;;;;;6.32;3.80;;;26.70;66.40;;;;;;6156422;28;80846;-61
2022/07/05 05:34:32;;;;;;;6.10;3.65;;;26.60;66.30;;;;;;6152700;28;80337;-61
2022/07/05 05:37:32;;;;;;;7.57;3.55;;;26.60;66.10;;;;;;6145518;28;80368;-61
2022/07/05 05:40:33;;;;;;;8.70;4.85;;;26.50;65.80;;;;;;6139329;28;80484;-61
2022/07/05 05:43:33;;;;;;;12.93;3.85;;;26.50;65.30;;;;;;6140359;28;80823;-62
2022/07/05 05:46:34;;;;;;;10.75;4.57;;;26.40;65.80;;;;;;6140768;28;80612;-61
2022/07/05 05:49:34;;;;;;;9.43;4.10;;;26.30;66.20;;;;;;6140382;28;81308;-61
2022/07/05 05:52:35;;;;;;;7.72;4.22;;;26.30;66.00;;;;;;6138153;28;80671;-62
2022/07/05 05:55:35;;;;;;;7.10;4.05;;;26.20;65.90;;;;;;6142011;28;80025;-61
2022/07/05 05:58:36;;;;;;;8.73;4.25;;;26.20;66.00;;;;;;6145622;28;81358;-61
2022/07/05 06:01:36;;;;;;;19.13;4.30;;;26.10;66.50;;;;;;6145500;28;80844;-62
2022/07/05 06:04:37;;;;;;;9.65;4.43;;;26.10;67.00;;;;;;6143106;28;80509;-61
2022/07/05 06:07:37;;;;;;;8.38;4.57;;;26.10;67.30;;;;;;6139663;28;80201;-61
2022/07/05 06:10:38;;;;;;;5.35;4.43;;;26.00;67.00;;;;;;6139881;28;81867;-61
2022/07/05 06:13:38;;;;;;;7.90;4.72;;;26.00;66.90;;;;;;6142792;28;80986;-60
2022/07/05 06:16:39;;;;;;;17.35;5.78;;;26.00;67.20;;;;;;6145146;28;80466;-60
2022/07/05 06:19:39;;;;;;;8.75;4.60;;;26.00;67.60;;;;;;6154188;28;80889;-66
2022/07/05 06:22:40;;;;;;;7.45;4.50;;;25.90;68.00;;;;;;6157312;28;83234;-69
2022/07/05 06:25:40;;;;;;;6.57;4.25;;;25.90;67.70;;;;;;6151058;28;80445;-61
2022/07/05 06:28:41;;;;;;;14.27;5.00;;;25.80;67.90;;;;;;6152762;28;80773;-61
2022/07/05 06:31:41;;;;;;;11.48;4.78;;;25.80;68.60;;;;;;6146067;28;81495;-63
2022/07/05 06:34:42;;;;;;;22.88;10.82;;;25.80;68.90;;;;;;6154160;28;80567;-61
2022/07/05 06:37:42;;;;;;;15.23;6.97;;;25.80;69.00;;;;;;6161745;28;83217;-61
2022/07/05 06:40:43;;;;;;;12.07;6.57;;;25.80;68.80;;;;;;6165522;28;84006;-62
2022/07/05 06:43:44;;;;;;;12.05;6.07;;;25.90;68.30;;;;;;6164266;28;81781;-61
2022/07/05 06:46:51;;;;;;;10.70;5.93;;;26.00;67.80;;;;;;6167200;28;80687;-61
2022/07/05 06:49:51;;;;;;;9.48;5.80;;;26.10;67.50;;;;;;6165349;28;80337;-61
2022/07/05 06:52:52;;;;;;;12.07;5.53;;;26.20;67.60;;;;;;6165045;28;81302;-61
2022/07/05 06:55:52;;;;;;;6.53;4.95;;;26.20;67.60;;;;;;6166282;28;81368;-61
2022/07/05 06:58:53;;;;;;;9.95;4.63;;;26.20;67.30;;;;;;6165302;28;80486;-61
2022/07/05 07:01:53;;;;;;;6.30;4.78;;;26.30;67.30;;;;;;6166583;28;80290;-61
2022/07/05 07:04:54;;;;;;;8.18;4.95;;;26.30;67.20;;;;;;6166504;28;80685;-61
2022/07/05 07:11:14;;;;;;;8.52;4.65;;;26.40;67.20;;;;;;6166364;28;80412;-61
2022/07/05 07:14:14;;;;;;;6.32;4.32;;;26.40;67.20;;;;;;6166490;28;80096;-61
2022/07/05 07:17:15;;;;;;;15.13;4.63;;;26.40;67.20;;;;;;6152074;28;83908;-61
2022/07/05 07:20:15;;;;;;;7.30;4.75;;;26.40;67.30;;;;;;6160739;28;80864;-61
2022/07/05 07:23:16;;;;;;;7.75;4.55;;;26.40;67.00;;;;;;6166225;28;80393;-61
2022/07/05 07:26:17;;;;;;;7.30;4.65;;;26.40;66.90;;;;;;6166376;28;80345;-61
2022/07/05 07:29:17;;;;;;;8.02;4.88;;;26.40;66.80;;;;;;6166496;28;80417;-61
2022/07/05 07:32:18;;;;;;;6.35;4.13;;;26.40;66.70;;;;;;6157995;28;80499;-61
2022/07/05 07:35:19;;;;;;;6.68;4.30;;;26.40;66.80;;;;;;6164700;28;80593;-61
2022/07/05 07:38:20;;;;;;;5.80;4.32;;;26.40;66.80;;;;;;6155688;28;81626;-61
2022/07/05 07:41:20;;;;;;;11.25;4.93;;;26.40;66.70;;;;;;6161030;28;83461;-61
2022/07/05 07:44:21;;;;;;;6.63;3.88;;;26.50;66.70;;;;;;6164744;28;80830;-61
2022/07/05 07:47:21;;;;;;;5.05;3.97;;;26.50;66.70;;;;;;6162007;28;80809;-60
2022/07/05 07:50:21;;;;;;;6.85;4.72;;;26.50;66.40;;;;;;6155790;28;80347;-60
2022/07/05 07:53:22;;;;;;;9.77;4.32;;;26.40;66.40;;;;;;6162117;28;80334;-61
2022/07/05 07:56:22;;;;;;;7.03;4.35;;;26.50;66.40;;;;;;6161611;28;80545;-61
2022/07/05 07:59:23;;;;;;;9.02;4.80;;;26.50;66.50;;;;;;6160609;28;80415;-61
2022/07/05 08:02:24;;;;;;;10.65;4.72;;;26.50;66.60;;;;;;6161823;28;80766;-61
2022/07/05 08:05:24;;;;;;;5.72;4.25;;;26.60;66.80;;;;;;6161355;28;80774;-61
2022/07/05 08:08:25;;;;;;;5.93;4.28;;;26.50;66.80;;;;;;6161339;28;80647;-61
2022/07/05 08:11:25;;;;;;;4.47;3.97;;;26.60;67.20;;;;;;6161102;28;81955;-61
2022/07/05 08:14:26;;;;;;;5.80;3.75;;;26.60;67.00;;;;;;6162010;28;80903;-61
2022/07/05 08:17:26;;;;;;;6.85;4.22;;;26.60;67.20;;;;;;6168292;28;80387;-61
2022/07/05 08:23:46;;;;;;;8.02;5.20;;;26.50;67.60;;;;;;6153692;28;82551;-61
2022/07/05 08:26:46;;;;;;;10.90;4.82;;;26.50;67.40;;;;;;6159187;28;80409;-61
2022/07/05 08:29:47;;;;;;;7.65;4.70;;;26.50;67.20;;;;;;6149185;28;80327;-61
2022/07/05 08:32:47;;;;;;;7.75;4.35;;;26.40;67.40;;;;;;6158959;28;80582;-60
2022/07/05 08:35:48;;;;;;;8.05;4.70;;;26.40;67.70;;;;;;6154779;28;81226;-61
2022/07/05 08:38:48;;;;;;;7.40;4.60;;;26.40;67.80;;;;;;6159257;28;81716;-61
2022/07/05 08:41:52;;;;;;;6.85;4.65;;;26.40;68.00;;;;;;6158692;28;80483;-60
2022/07/05 08:44:52;;;;;;;9.80;4.93;;;26.40;67.70;;;;;;6139819;28;81241;-61
2022/07/05 08:47:53;;;;;;;10.10;4.80;;;26.40;67.80;;;;;;6158950;28;80376;-60
2022/07/05 08:50:53;;;;;;;7.57;4.35;;;26.40;67.90;;;;;;6155934;28;80124;-61
2022/07/05 08:53:55;;;;;;;10.10;5.22;;;26.50;67.80;;;;;;6153019;28;80586;-60
2022/07/05 08:56:56;;;;;;;5.93;3.97;;;26.50;67.80;;;;;;6155390;28;83957;-60
2022/07/05 08:59:56;;;;;;;11.52;5.00;;;26.50;67.60;;;;;;6152008;28;81605;-59
2022/07/05 09:02:57;;;;;;;9.80;4.93;;;26.50;67.60;;;;;;6164005;28;80618;-67
2022/07/05 09:05:57;;;;;;;11.35;5.72;;;26.40;68.90;;;;;;6160222;28;80426;-67
2022/07/05 09:08:57;;;;;;;11.55;5.70;;;26.40;69.40;;;;;;6160693;28;80386;-66
2022/07/05 09:11:58;;;;;;;14.05;6.00;;;26.40;70.90;;;;;;6163832;28;80626;-61
2022/07/05 09:14:58;;;;;;;9.55;6.32;;;26.30;72.40;;;;;;6158699;28;81954;-61
2022/07/05 09:17:59;;;;;;;11.50;6.63;;;26.30;73.20;;;;;;6155481;28;80715;-61
2022/07/05 09:20:59;;;;;;;12.55;5.53;;;26.20;72.40;;;;;;6159288;28;80678;-61
2022/07/05 09:24:00;;;;;;;11.18;6.05;;;26.10;71.60;;;;;;6154434;28;80780;-62
2022/07/05 09:27:00;;;;;;;9.98;6.00;;;26.10;72.20;;;;;;6146845;28;80091;-63
2022/07/05 09:30:01;;;;;;;10.18;5.55;;;26.00;71.60;;;;;;6154109;28;81206;-63
2022/07/05 09:33:02;;;;;;;11.45;6.05;;;26.10;71.10;;;;;;6149847;28;80660;-63
2022/07/05 09:36:02;;;;;;;9.00;6.28;;;26.10;71.30;;;;;;6156699;28;80909;-63
2022/07/05 09:39:02;;;;;;;15.27;6.68;;;26.10;72.40;;;;;;6155583;28;80728;-63
2022/07/05 09:42:03;;;;;;;10.40;6.32;;;26.00;73.10;;;;;;6146367;28;80460;-64
2022/07/05 09:45:03;;;;;;;6.88;5.30;;;26.00;72.90;;;;;;6171317;28;81093;-63
2022/07/05 09:48:04;;;;;;;8.23;5.07;;;25.90;72.50;;;;;;6157438;28;81368;-63
2022/07/05 09:51:04;;;;;;;9.27;5.75;;;25.90;72.50;;;;;;6159909;28;80287;-63
2022/07/05 09:54:05;;;;;;;10.10;5.63;;;25.90;73.00;;;;;;6159278;28;80627;-63
2022/07/05 09:57:05;;;;;;;12.45;6.55;;;25.90;72.60;;;;;;6159204;28;80823;-62
2022/07/05 10:00:06;;;;;;;11.68;5.68;;;25.90;73.70;;;;;;6154057;28;80906;-62
2022/07/05 10:03:07;;;;;;;8.88;5.95;;;25.90;73.30;;;;;;6159676;28;81686;-64
2022/07/05 10:06:08;;;;;;;11.50;5.75;;;25.90;72.80;;;;;;6159601;28;80683;-63
2022/07/05 10:09:08;;;;;;;6.95;5.20;;;25.90;72.60;;;;;;6158625;28;80348;-62
2022/07/05 10:12:09;;;;;;;10.18;5.40;;;25.90;72.40;;;;;;6159093;28;80377;-63
2022/07/05 10:15:09;;;;;;;8.68;6.40;;;25.90;73.20;;;;;;6154151;28;80297;-63
2022/07/05 10:18:10;;;;;;;9.68;5.68;;;25.90;72.50;;;;;;6169217;28;80616;-64
2022/07/05 10:21:10;;;;;;;12.50;5.53;;;25.90;73.40;;;;;;6148846;28;80981;-63
2022/07/05 10:24:11;;;;;;;9.48;6.00;;;25.90;72.80;;;;;;6142979;28;80480;-63
2022/07/05 10:27:11;;;;;;;8.25;5.95;;;25.90;74.40;;;;;;6149606;28;81102;-62
2022/07/05 10:30:12;;;;;;;11.25;5.57;;;25.90;73.70;;;;;;6140438;28;80681;-63
2022/07/05 10:33:16;;;;;;;8.65;5.90;;;25.90;73.80;;;;;;6138546;28;83436;-63
2022/07/05 10:36:17;;;;;;;7.00;5.65;;;25.90;74.30;;;;;;6138399;28;85055;-64
2022/07/05 10:39:17;;;;;;;6.90;5.50;;;25.90;74.30;;;;;;6141288;28;80269;-64
2022/07/05 10:42:18;;;;;;;7.30;5.32;;;25.90;74.00;;;;;;6150229;28;81010;-64
2022/07/05 10:45:18;;;;;;;8.40;6.45;;;26.00;74.70;;;;;;6145342;28;80592;-64
2022/07/05 10:48:19;;;;;;;10.55;6.43;;;25.90;75.90;;;;;;6144696;28;80973;-63
2022/07/05 10:51:19;;;;;;;8.80;6.55;;;25.90;74.20;;;;;;6146932;28;81740;-63
2022/07/05 10:54:20;;;;;;;10.02;6.30;;;25.90;74.70;;;;;;6139050;28;80261;-63
2022/07/05 10:57:21;;;;;;;13.57;5.88;;;25.90;73.40;;;;;;6142538;28;81175;-64
2022/07/05 11:00:22;;;;;;;9.50;5.82;;;25.80;73.10;;;;;;6144948;28;81906;-63
2022/07/05 11:03:23;;;;;;;10.02;6.07;;;25.90;74.20;;;;;;6144861;28;81670;-62
2022/07/05 11:06:23;;;;;;;17.25;5.65;;;25.80;74.30;;;;;;6143993;28;80599;-63
2022/07/05 11:09:24;;;;;;;9.50;5.68;;;25.90;74.10;;;;;;6157891;28;80484;-62
2022/07/05 11:12:24;;;;;;;9.75;4.90;;;25.70;73.70;;;;;;6151822;28;80762;-63
2022/07/05 11:15:25;;;;;;;7.57;5.60;;;25.50;74.50;;;;;;6155113;28;80451;-61
2022/07/05 11:18:25;;;;;;;8.10;4.95;;;25.70;74.00;;;;;;6153169;28;80862;-64
2022/07/05 11:21:26;;;;;;;8.30;4.40;;;25.80;72.60;;;;;;6160402;28;81842;-62
2022/07/05 11:24:26;;;;;;;6.93;4.60;;;25.90;72.20;;;;;;6161432;28;80795;-61
2022/07/05 11:27:27;;;;;;;8.30;5.57;;;26.00;72.10;;;;;;6162279;28;80654;-61
2022/07/05 11:30:27;;;;;;;8.63;5.72;;;26.00;72.00;;;;;;6161063;28;80399;-61
2022/07/05 11:33:28;;;;;;;12.63;5.45;;;26.00;73.10;;;;;;6162330;28;80589;-62
2022/07/05 11:36:30;;;;;;;12.68;5.47;;;26.00;73.10;;;;;;6162334;28;80620;-61
2022/07/05 11:39:31;;;;;;;7.85;5.55;;;26.00;74.00;;;;;;6161950;28;80333;-61
2022/07/05 11:42:31;;;;;;;6.65;5.30;;;26.10;74.60;;;;;;6158268;28;80501;-61
2022/07/05 11:45:32;;;;;;;11.93;6.22;;;26.10;75.90;;;;;;6160050;28;82847;-61
2022/07/05 11:48:32;;;;;;;10.98;4.82;;;26.10;75.10;;;;;;6157048;28;80267;-60
2022/07/05 11:51:33;;;;;;;8.05;5.00;;;26.10;73.80;;;;;;6153670;28;80511;-61
2022/07/05 11:54:33;;;;;;;8.63;5.22;;;26.10;74.90;;;;;;6162135;28;80823;-61
2022/07/05 11:57:34;;;;;;;7.38;5.32;;;26.10;76.60;;;;;;6153991;28;80613;-61
2022/07/05 12:00:37;;;;;;;7.78;5.75;;;26.10;76.60;;;;;;6156574;28;81268;-61
2022/07/05 12:03:39;;;;;;;10.30;5.15;;;26.10;75.90;;;;;;6156540;28;81040;-61
2022/07/05 12:06:39;;;;;;;9.13;5.60;;;26.10;74.40;;;;;;6162052;28;80809;-71
2022/07/05 12:12:59;;;;;;;7.10;4.95;;;26.20;74.70;;;;;;6161446;28;80471;-70
2022/07/05 12:16:00;;;;;;;5.97;4.13;;;26.20;73.80;;;;;;6161837;28;80696;-60
2022/07/05 12:19:02;;;;;;;14.48;5.20;;;26.30;73.40;;;;;;6159322;28;81298;-61
2022/07/05 12:22:03;;;;;;;11.98;5.15;;;26.40;73.40;;;;;;6161028;28;81415;-61
2022/07/05 12:25:04;;;;;;;14.25;6.45;;;26.40;73.40;;;;;;6147218;28;80764;-62
2022/07/05 12:28:06;;;;;;;8.80;6.03;;;26.40;74.00;;;;;;6144151;28;80171;-62
2022/07/05 12:31:07;;;;;;;7.25;4.93;;;26.20;72.90;;;;;;6142306;28;80307;-62
2022/07/05 12:34:07;;;;;;;7.82;4.20;;;26.10;71.90;;;;;;6152682;28;80357;-62
2022/07/05 12:37:08;;;;;;;7.28;5.20;;;26.10;72.00;;;;;;6161260;28;80540;-62
2022/07/05 12:40:09;;;;;;;6.32;5.03;;;26.10;73.30;;;;;;6159412;28;80416;-62
2022/07/05 12:43:09;;;;;;;9.75;6.60;;;26.10;75.00;;;;;;6156654;28;80382;-62
2022/07/05 12:46:10;;;;;;;8.32;6.10;;;26.10;75.20;;;;;;6157013;28;80514;-62
2022/07/05 12:49:11;;;;;;;7.88;5.35;;;26.10;76.30;;;;;;6155310;28;80717;-62
2022/07/05 12:52:11;;;;;;;9.52;5.03;;;26.10;77.40;;;;;;6155143;28;80439;-66
2022/07/05 12:58:31;;;;;;;6.40;5.03;;;26.10;78.00;;;;;;6139814;28;81663;-63
2022/07/05 13:01:31;;;;;;;8.18;5.00;;;26.10;76.60;;;;;;6143711;28;80277;-63
2022/07/05 13:04:32;;;;;;;7.32;5.15;;;26.10;76.50;;;;;;6153140;28;80247;-60
2022/07/05 13:07:32;;;;;;;6.53;4.38;;;26.10;77.10;;;;;;6158995;28;80456;-66
2022/07/05 13:10:33;;;;;;;3.75;3.33;;;26.10;77.10;;;;;;6160751;28;81239;-62
2022/07/05 13:13:33;;;;;;;7.40;4.90;;;26.10;77.10;;;;;;6151153;28;80300;-61
2022/07/05 13:16:34;;;;;;;6.30;4.10;;;26.20;77.70;;;;;;6157061;28;80648;-61
2022/07/05 13:19:34;;;;;;;5.72;4.25;;;26.20;77.70;;;;;;6159360;28;80592;-60
2022/07/05 13:22:35;;;;;;;7.60;4.85;;;26.30;77.90;;;;;;6150487;28;81431;-61
2022/07/05 13:25:35;;;;;;;7.90;4.63;;;26.30;78.70;;;;;;6154366;28;80471;-61
2022/07/05 13:28:36;;;;;;;7.60;5.20;;;26.30;77.90;;;;;;6159518;28;80457;-62
2022/07/05 13:31:36;;;;;;;5.82;4.22;;;26.30;77.80;;;;;;6159726;28;81290;-61
2022/07/05 13:34:37;;;;;;;7.05;4.28;;;26.30;78.70;;;;;;6146195;28;80208;-62
2022/07/05 13:37:37;;;;;;;7.80;4.30;;;26.40;78.80;;;;;;6159916;28;81338;-62
2022/07/05 13:40:39;;;;;;;11.65;4.25;;;26.40;77.70;;;;;;6152029;28;80336;-62
2022/07/05 13:43:40;;;;;;;10.20;4.38;;;26.40;77.80;;;;;;6150372;28;80995;-63
2022/07/05 13:46:40;;;;;;;5.38;3.60;;;26.40;75.60;;;;;;6155347;28;80380;-63
2022/07/05 13:49:42;;;;;;;4.50;3.13;;;26.40;75.50;;;;;;6158932;28;81824;-63
2022/07/05 13:52:43;;;;;;;4.03;2.95;;;26.30;75.00;;;;;;6160277;28;82216;-62
2022/07/05 13:55:43;;;;;;;3.90;2.92;;;26.30;73.80;;;;;;6159475;28;81416;-63
2022/07/05 13:58:43;;;;;;;4.15;3.20;;;26.30;74.20;;;;;;6157836;28;80304;-63
2022/07/05 14:01:44;;;;;;;3.40;3.08;;;26.40;74.90;;;;;;6152831;28;80653;-64
2022/07/05 14:04:44;;;;;;;6.20;3.35;;;26.40;75.90;;;;;;6159018;28;80469;-64
2022/07/05 14:07:45;;;;;;;5.90;3.33;;;26.40;73.70;;;;;;6154698;28;80482;-63
2022/07/05 14:10:45;;;;;;;3.35;2.83;;;26.30;73.50;;;;;;6159284;28;80383;-63
2022/07/05 14:13:46;;;;;;;4.78;3.50;;;26.40;73.20;;;;;;6156409;28;80872;-63
2022/07/05 14:16:46;;;;;;;4.00;3.17;;;26.40;73.90;;;;;;6157956;28;80459;-64
2022/07/05 14:19:47;;;;;;;4.97;2.60;;;26.40;73.20;;;;;;6158666;28;81209;-64
2022/07/05 14:22:47;;;;;;;3.58;3.10;;;26.40;73.40;;;;;;6155998;28;80678;-63
2022/07/05 14:25:48;;;;;;;3.67;3.20;;;26.40;73.10;;;;;;6159199;28;82134;-64
2022/07/05 14:28:48;;;;;;;5.07;2.88;;;26.40;72.60;;;;;;6159308;28;80424;-63
2022/07/05 14:31:49;;;;;;;5.13;3.08;;;26.40;73.20;;;;;;6158590;28;80280;-65
2022/07/05 14:34:49;;;;;;;6.85;3.65;;;26.40;72.50;;;;;;6158828;28;80084;-64
2022/07/05 14:37:50;;;;;;;3.88;2.67;;;26.40;72.00;;;;;;6158537;28;80665;-64
2022/07/05 14:40:50;;;;;;;2.90;2.58;;;26.40;72.40;;;;;;6158882;28;80010;-67
2022/07/05 14:43:51;;;;;;;8.60;2.75;;;26.40;72.50;;;;;;6149459;28;80862;-64
2022/07/05 14:46:51;;;;;;;3.67;2.55;;;26.40;73.00;;;;;;6158989;28;80242;-65
2022/07/05 14:49:52;;;;;;;6.03;2.67;;;26.50;73.50;;;;;;6148755;28;80152;-63
2022/07/05 14:52:52;;;;;;;5.13;2.40;;;26.50;72.50;;;;;;6157113;28;80497;-63
2022/07/05 14:55:54;;;;;;;3.30;2.67;;;26.50;72.50;;;;;;6161160;28;81013;-64
2022/07/05 14:58:55;;;;;;;3.47;2.72;;;26.50;73.80;;;;;;6162833;28;80446;-64
2022/07/05 15:01:55;;;;;;;2.95;2.20;;;26.60;74.00;;;;;;6162397;28;80613;-64
2022/07/05 15:04:56;;;;;;;4.35;2.50;;;26.60;73.70;;;;;;6160297;28;80740;-63
2022/07/05 15:07:56;;;;;;;5.20;2.90;;;26.60;74.10;;;;;;6145622;28;80343;-63
2022/07/05 15:10:57;;;;;;;2.92;2.47;;;26.60;73.60;;;;;;6162693;28;81711;-64
2022/07/05 15:14:00;;;;;;;4.63;3.05;;;26.60;73.00;;;;;;6162426;28;80947;-64
2022/07/05 15:17:00;;;;;;;6.75;2.90;;;26.70;71.80;;;;;;6162270;28;80304;-63
2022/07/05 15:20:01;;;;;;;5.10;2.40;;;26.70;73.10;;;;;;6157681;28;80282;-64
2022/07/05 15:23:01;;;;;;;5.55;2.75;;;26.70;73.00;;;;;;6162516;28;80526;-65
2022/07/05 15:26:02;;;;;;;5.00;2.92;;;26.70;73.50;;;;;;6162222;28;80397;-63
2022/07/05 15:29:03;;;;;;;4.20;3.25;;;26.70;74.60;;;;;;6162236;28;80962;-62
2022/07/05 15:32:03;;;;;;;6.15;3.08;;;26.70;73.40;;;;;;6161923;28;80310;-63
2022/07/05 15:35:04;;;;;;;3.85;3.08;;;26.70;72.80;;;;;;6162107;28;80722;-64
2022/07/05 15:38:04;;;;;;;9.35;3.83;;;26.70;71.60;;;;;;6162149;28;80603;-63
2022/07/05 15:41:05;;;;;;;9.85;5.22;;;26.70;72.30;;;;;;6161847;28;81039;-64
2022/07/05 15:44:06;;;;;;;10.52;5.32;;;26.60;72.20;;;;;;6158581;28;80160;-64
2022/07/05 15:47:09;;;;;;;9.98;5.45;;;26.70;72.80;;;;;;6161433;28;80467;-64
2022/07/05 15:50:12;;;;;;;8.80;5.45;;;26.70;73.50;;;;;;6162158;28;80506;-64
2022/07/05 15:53:13;;;;;;;8.25;5.07;;;26.70;72.60;;;;;;6153338;28;80976;-64
2022/07/05 15:56:13;;;;;;;9.18;5.30;;;26.70;73.10;;;;;;6158860;28;80238;-64